Time;durP1;ratioP1;P1;durP2;ratioP2;P2;SDS_P1;SDS_P2;PMS_P1;PMS_P2;Temp;Humidity;BMP_temperature;BMP_pressure;BME280_temperature;BME280_humidity;BME280_pressure;Samples;Min_cycle;Max_cycle;Signal;HPM_P1;HPM_P2
2023/03/06 00:00:09;;;;;;;77.90;54.67;;;15.60;57.00;;;;;;4912768;28;88255;-49
2023/03/06 00:02:35;;;;;;;77.85;54.53;;;15.60;57.10;;;;;;4908608;28;87485;-47
2023/03/06 00:05:01;;;;;;;77.60;54.13;;;15.60;57.10;;;;;;4903114;28;88908;-47
2023/03/06 00:07:26;;;;;;;80.13;55.97;;;15.50;57.10;;;;;;4918328;28;88619;-46
2023/03/06 00:09:52;;;;;;;81.28;55.15;;;15.60;57.10;;;;;;4904728;28;92009;-49
2023/03/06 00:12:17;;;;;;;77.00;54.33;;;15.50;57.00;;;;;;4909663;28;86766;-48
2023/03/06 00:14:43;;;;;;;74.93;54.08;;;15.50;57.00;;;;;;4904705;28;88527;-47
2023/03/06 00:17:09;;;;;;;79.03;54.45;;;15.50;57.00;;;;;;4910969;28;86423;-50
2023/03/06 00:19:34;;;;;;;76.88;54.63;;;15.50;57.10;;;;;;4913377;28;86843;-46
2023/03/06 00:22:02;;;;;;;80.65;55.55;;;15.50;57.20;;;;;;4908004;28;89327;-47
2023/03/06 00:24:27;;;;;;;77.82;55.05;;;15.40;57.00;;;;;;4921533;28;85273;-46
2023/03/06 00:26:53;;;;;;;81.78;55.42;;;15.50;57.10;;;;;;4910157;28;91269;-48
2023/03/06 00:29:19;;;;;;;77.15;54.95;;;15.50;57.10;;;;;;4910214;28;90941;-48
2023/03/06 00:31:46;;;;;;;78.13;54.10;;;15.50;57.00;;;;;;4916936;28;86712;-51
2023/03/06 00:34:12;;;;;;;76.80;55.17;;;15.40;57.10;;;;;;4915006;28;85659;-48
2023/03/06 00:36:38;;;;;;;79.10;55.33;;;15.40;57.10;;;;;;4914706;28;88234;-47
2023/03/06 00:39:04;;;;;;;79.43;55.35;;;15.40;57.00;;;;;;4913845;28;86624;-47
2023/03/06 00:41:30;;;;;;;77.45;54.53;;;15.40;57.20;;;;;;4910161;28;88562;-48
2023/03/06 00:43:55;;;;;;;79.25;55.70;;;15.30;57.10;;;;;;4915197;28;86513;-49
2023/03/06 00:46:21;;;;;;;78.45;55.00;;;15.30;57.20;;;;;;4912441;28;86688;-48
2023/03/06 00:48:47;;;;;;;78.32;55.03;;;15.30;57.10;;;;;;4908229;28;91657;-49
2023/03/06 00:51:12;;;;;;;77.20;55.03;;;15.30;57.20;;;;;;4903334;28;87335;-50
2023/03/06 00:53:38;;;;;;;78.47;55.17;;;15.30;57.00;;;;;;4912763;28;88025;-46
2023/03/06 00:56:04;;;;;;;78.57;54.88;;;15.30;57.20;;;;;;4908587;28;86127;-50
2023/03/06 00:58:30;;;;;;;76.72;54.22;;;15.30;57.10;;;;;;4921405;28;86268;-48
2023/03/06 01:00:55;;;;;;;78.20;55.13;;;15.30;57.30;;;;;;4911574;28;88806;-46
2023/03/06 01:03:21;;;;;;;77.90;55.00;;;15.20;57.30;;;;;;4918459;28;88079;-47
2023/03/06 01:05:46;;;;;;;78.60;55.55;;;15.30;57.20;;;;;;4918430;28;86936;-48
2023/03/06 01:08:12;;;;;;;76.95;54.28;;;15.30;57.20;;;;;;4924931;28;85583;-48
2023/03/06 01:10:39;;;;;;;76.97;54.20;;;15.20;57.70;;;;;;4922506;28;85155;-47
2023/03/06 01:13:05;;;;;;;76.90;54.60;;;15.20;57.20;;;;;;4914582;28;85596;-50
2023/03/06 01:15:31;;;;;;;79.28;55.78;;;15.20;57.30;;;;;;4914357;28;87229;-45
2023/03/06 01:17:57;;;;;;;76.68;55.30;;;15.20;57.30;;;;;;4922046;28;86408;-49
2023/03/06 01:20:23;;;;;;;77.35;55.33;;;15.20;57.20;;;;;;4919105;28;86269;-49
2023/03/06 01:22:48;;;;;;;78.07;55.22;;;15.20;57.30;;;;;;4923914;28;87695;-49
2023/03/06 01:25:14;;;;;;;80.22;56.10;;;15.10;57.30;;;;;;4909081;28;85735;-46
2023/03/06 01:27:40;;;;;;;76.65;54.90;;;15.10;57.30;;;;;;4924546;28;86622;-49
2023/03/06 01:30:06;;;;;;;78.03;54.75;;;15.10;57.20;;;;;;4910687;28;85923;-47
2023/03/06 01:32:32;;;;;;;78.20;55.33;;;15.10;57.40;;;;;;4919779;28;85598;-47
2023/03/06 01:34:58;;;;;;;76.38;54.33;;;15.10;57.30;;;;;;4918217;28;91575;-51
2023/03/06 01:37:24;;;;;;;77.13;54.95;;;15.20;57.20;;;;;;4917607;28;86486;-47
2023/03/06 01:39:49;;;;;;;78.10;55.10;;;15.20;57.10;;;;;;4911033;28;88165;-46
2023/03/06 01:42:15;;;;;;;78.60;55.92;;;15.10;57.20;;;;;;4915752;28;88296;-49
2023/03/06 01:45:04;;;;;;;78.97;54.95;;;15.10;57.20;;;;;;4917037;28;86179;-47
2023/03/06 01:47:30;;;;;;;78.30;55.28;;;15.10;57.30;;;;;;4907890;28;87876;-47
2023/03/06 01:49:57;;;;;;;78.07;55.28;;;15.10;57.20;;;;;;4918244;28;88758;-47
2023/03/06 01:52:29;;;;;;;77.85;55.00;;;15.10;57.20;;;;;;4913561;28;85705;-47
2023/03/06 01:55:02;;;;;;;77.20;54.70;;;15.10;57.20;;;;;;4908867;28;87066;-47
2023/03/06 01:57:42;;;;;;;76.95;54.97;;;15.10;57.10;;;;;;4914451;28;86108;-46
2023/03/06 02:00:12;;;;;;;78.35;55.38;;;15.10;57.20;;;;;;4915774;28;85189;-46
2023/03/06 02:02:41;;;;;;;77.60;54.92;;;15.10;57.10;;;;;;4910808;28;89147;-48
2023/03/06 02:05:07;;;;;;;78.78;55.70;;;15.10;57.20;;;;;;4921757;28;86770;-48
2023/03/06 02:07:34;;;;;;;76.93;54.45;;;15.00;57.20;;;;;;4917811;28;87397;-48
2023/03/06 02:10:00;;;;;;;79.70;55.70;;;15.00;57.30;;;;;;4915928;28;86261;-49
2023/03/06 02:12:26;;;;;;;80.28;55.42;;;15.00;57.20;;;;;;4912306;28;86415;-49
2023/03/06 02:14:52;;;;;;;78.75;55.83;;;15.10;57.20;;;;;;4921963;28;87907;-48
2023/03/06 02:17:19;;;;;;;79.57;55.67;;;15.00;57.10;;;;;;4918632;28;85886;-50
2023/03/06 02:19:52;;;;;;;77.88;54.40;;;15.10;57.10;;;;;;4917512;28;86133;-48
2023/03/06 02:22:19;;;;;;;76.82;54.65;;;15.10;57.10;;;;;;4912646;28;87405;-48
2023/03/06 02:25:29;;;;;;;79.38;56.00;;;15.00;57.00;;;;;;4911848;28;87041;-51
2023/03/06 02:27:54;;;;;;;76.65;54.20;;;15.00;57.10;;;;;;4871783;28;87886;-47
2023/03/06 02:30:21;;;;;;;75.18;53.90;;;15.00;57.00;;;;;;4873557;28;86124;-49
2023/03/06 02:32:47;;;;;;;76.03;54.00;;;15.00;57.10;;;;;;4882929;28;87424;-50
2023/03/06 02:35:24;;;;;;;80.65;55.72;;;15.00;57.00;;;;;;4915879;28;86323;-46
2023/03/06 02:37:51;;;;;;;78.97;55.25;;;15.00;57.00;;;;;;4918448;28;85822;-45
2023/03/06 02:40:19;;;;;;;79.05;55.92;;;15.00;57.10;;;;;;4915589;28;85424;-48
2023/03/06 02:42:47;;;;;;;77.00;54.30;;;15.00;57.10;;;;;;4924390;28;86061;-49
2023/03/06 02:45:16;;;;;;;78.30;55.65;;;15.00;57.00;;;;;;4921956;28;87031;-47
2023/03/06 02:47:41;;;;;;;77.90;55.25;;;15.00;57.10;;;;;;4917607;28;87520;-49
2023/03/06 02:50:09;;;;;;;79.68;55.13;;;15.00;57.00;;;;;;4920333;28;85982;-45
2023/03/06 02:52:34;;;;;;;77.00;54.60;;;15.00;57.00;;;;;;4916035;28;85782;-50
2023/03/06 02:55:00;;;;;;;75.97;54.70;;;15.00;57.00;;;;;;4894242;28;91233;-46
2023/03/06 02:57:26;;;;;;;76.40;54.58;;;15.00;56.90;;;;;;4911870;28;87350;-49
2023/03/06 02:59:51;;;;;;;76.43;54.53;;;14.90;57.00;;;;;;4914733;28;86276;-45
2023/03/06 03:02:17;;;;;;;78.10;55.35;;;14.90;57.00;;;;;;4913654;28;85921;-48
2023/03/06 03:04:43;;;;;;;79.03;54.50;;;14.90;57.10;;;;;;4913608;28;88118;-48
2023/03/06 03:07:08;;;;;;;79.38;55.28;;;14.90;57.00;;;;;;4918177;28;86929;-46
2023/03/06 03:09:36;;;;;;;79.13;55.88;;;14.90;57.00;;;;;;4904224;28;86619;-47
2023/03/06 03:12:04;;;;;;;78.70;55.47;;;14.90;57.10;;;;;;4915591;28;86369;-48
2023/03/06 03:14:29;;;;;;;77.82;55.70;;;14.90;57.20;;;;;;4917607;28;85924;-47
2023/03/06 03:16:55;;;;;;;77.22;55.28;;;14.90;57.20;;;;;;4916728;28;86248;-46
2023/03/06 03:19:21;;;;;;;78.68;55.13;;;14.80;57.20;;;;;;4907709;28;85582;-47
2023/03/06 03:21:46;;;;;;;78.97;55.38;;;14.90;57.20;;;;;;4913266;28;87685;-50
2023/03/06 03:24:12;;;;;;;78.45;55.35;;;14.90;57.20;;;;;;4913675;28;86815;-48
2023/03/06 03:26:38;;;;;;;77.15;55.15;;;14.90;57.20;;;;;;4908959;28;86709;-48
2023/03/06 03:29:04;;;;;;;78.40;55.78;;;14.90;56.60;;;;;;4916936;28;85656;-49
2023/03/06 03:31:30;;;;;;;78.47;56.00;;;15.10;56.40;;;;;;4915423;28;87185;-49
2023/03/06 03:33:56;;;;;;;80.28;56.58;;;15.10;55.80;;;;;;4914647;28;85887;-47
2023/03/06 03:36:22;;;;;;;77.68;55.40;;;15.10;55.50;;;;;;4908653;28;89272;-50
2023/03/06 03:38:47;;;;;;;78.68;55.35;;;15.10;55.50;;;;;;4917030;28;87094;-47
2023/03/06 03:41:13;;;;;;;79.90;55.60;;;15.10;55.50;;;;;;4910756;28;88368;-48
2023/03/06 03:43:38;;;;;;;77.63;55.45;;;15.10;55.30;;;;;;4917242;28;87659;-47
2023/03/06 03:46:04;;;;;;;79.32;55.90;;;15.10;55.30;;;;;;4915474;28;87475;-48
2023/03/06 03:48:30;;;;;;;80.65;57.30;;;15.10;55.50;;;;;;4909913;28;88306;-49
2023/03/06 03:51:07;;;;;;;78.00;55.75;;;15.10;55.20;;;;;;4905113;28;87755;-45
2023/03/06 03:53:33;;;;;;;77.95;55.05;;;15.10;55.00;;;;;;4912117;28;93012;-47
2023/03/06 03:55:58;;;;;;;77.82;55.25;;;15.20;54.80;;;;;;4913695;28;86194;-47
2023/03/06 03:58:24;;;;;;;79.43;57.13;;;15.10;54.90;;;;;;4910144;28;85706;-48
2023/03/06 04:00:50;;;;;;;80.38;56.00;;;15.10;55.00;;;;;;4909226;28;88618;-47
2023/03/06 04:03:15;;;;;;;78.80;56.35;;;15.10;54.90;;;;;;4910295;28;86851;-50
2023/03/06 04:05:41;;;;;;;81.78;57.15;;;15.20;54.80;;;;;;4900408;28;90976;-46
2023/03/06 04:08:07;;;;;;;79.07;56.05;;;15.20;54.70;;;;;;4915945;28;86937;-46
2023/03/06 04:10:33;;;;;;;82.07;57.58;;;15.10;54.40;;;;;;4915212;28;86409;-48
2023/03/06 04:12:59;;;;;;;80.13;56.53;;;15.10;54.70;;;;;;4907314;28;88609;-49
2023/03/06 04:15:25;;;;;;;80.18;57.03;;;15.10;55.30;;;;;;4895581;28;86672;-51
2023/03/06 04:17:50;;;;;;;80.55;55.33;;;15.20;54.60;;;;;;4899967;28;88218;-51
2023/03/06 04:20:16;;;;;;;80.75;57.17;;;15.20;54.50;;;;;;4901355;28;91041;-48
2023/03/06 04:22:42;;;;;;;77.43;55.90;;;15.20;54.40;;;;;;4908852;28;87167;-46
2023/03/06 04:25:08;;;;;;;80.30;56.70;;;15.20;54.50;;;;;;4910485;28;87213;-46
2023/03/06 04:27:34;;;;;;;83.80;57.72;;;15.10;54.60;;;;;;4914505;28;86650;-46
2023/03/06 04:30:00;;;;;;;80.97;56.85;;;15.10;54.50;;;;;;4913891;28;87528;-52
2023/03/06 04:32:26;;;;;;;80.30;56.38;;;15.10;54.60;;;;;;4906379;28;86243;-48
2023/03/06 04:34:51;;;;;;;79.63;55.97;;;15.10;54.60;;;;;;4904993;28;87212;-45
2023/03/06 04:37:20;;;;;;;79.07;57.53;;;15.10;54.60;;;;;;4912635;28;92372;-49
2023/03/06 04:39:47;;;;;;;81.40;57.33;;;15.10;54.40;;;;;;4914108;28;86045;-48
2023/03/06 04:42:13;;;;;;;77.85;55.42;;;15.10;54.40;;;;;;4910961;28;88444;-46
2023/03/06 04:44:38;;;;;;;80.22;56.17;;;15.20;54.40;;;;;;4917055;28;85629;-47
2023/03/06 04:47:04;;;;;;;80.68;56.30;;;15.10;54.60;;;;;;4904914;28;86024;-47
2023/03/06 04:49:30;;;;;;;81.30;57.53;;;15.10;54.40;;;;;;4907781;28;85687;-49
2023/03/06 04:51:55;;;;;;;80.88;57.80;;;15.10;54.50;;;;;;4917215;28;85926;-47
2023/03/06 04:54:21;;;;;;;82.15;56.45;;;15.10;54.50;;;;;;4919507;28;85817;-47
2023/03/06 04:56:47;;;;;;;84.53;57.97;;;15.10;54.60;;;;;;4907360;28;85596;-50
2023/03/06 04:59:12;;;;;;;80.65;57.45;;;15.10;54.60;;;;;;4901603;28;87668;-50
2023/03/06 05:01:38;;;;;;;81.97;57.60;;;15.10;54.50;;;;;;4900296;28;90242;-49
2023/03/06 05:04:04;;;;;;;80.43;56.95;;;15.10;54.60;;;;;;4893434;28;86739;-48
2023/03/06 05:06:30;;;;;;;79.70;56.45;;;15.00;54.60;;;;;;4914930;28;86757;-48
2023/03/06 05:08:55;;;;;;;82.50;56.70;;;15.00;54.70;;;;;;4909861;28;85789;-45
2023/03/06 05:11:21;;;;;;;81.47;58.00;;;15.00;54.70;;;;;;4911936;28;87174;-50
2023/03/06 05:13:47;;;;;;;77.45;55.10;;;14.90;55.00;;;;;;4906622;28;86662;-48
2023/03/06 05:16:12;;;;;;;79.18;56.08;;;14.90;55.00;;;;;;4903739;28;86079;-48
2023/03/06 05:18:38;;;;;;;80.47;57.17;;;14.90;55.00;;;;;;4911062;28;86310;-46
2023/03/06 05:21:05;;;;;;;78.95;56.13;;;14.90;55.00;;;;;;4918786;28;88286;-48
2023/03/06 05:23:32;;;;;;;81.55;57.10;;;14.90;54.90;;;;;;4917347;28;91075;-51
2023/03/06 05:25:58;;;;;;;79.85;56.00;;;14.90;54.90;;;;;;4920895;28;85676;-48
2023/03/06 05:28:25;;;;;;;80.07;56.85;;;14.80;54.90;;;;;;4915818;28;87721;-49
2023/03/06 05:30:51;;;;;;;82.30;57.53;;;14.80;55.00;;;;;;4911202;28;86247;-46
2023/03/06 05:33:16;;;;;;;78.82;56.55;;;14.80;55.10;;;;;;4911375;28;88073;-47
2023/03/06 05:35:47;;;;;;;79.60;56.78;;;14.70;55.10;;;;;;4920085;28;85901;-46
2023/03/06 05:38:14;;;;;;;83.30;58.13;;;14.80;55.00;;;;;;4919927;28;91374;-48
2023/03/06 05:40:41;;;;;;;81.22;56.92;;;14.70;55.10;;;;;;4912896;28;91289;-48
2023/03/06 05:43:07;;;;;;;80.45;56.78;;;14.70;55.30;;;;;;4919907;28;89883;-47
2023/03/06 05:45:34;;;;;;;82.53;56.38;;;14.70;55.30;;;;;;4920944;28;90732;-47
2023/03/06 05:47:59;;;;;;;78.30;56.40;;;14.70;55.30;;;;;;4912090;28;90923;-46
2023/03/06 05:50:25;;;;;;;85.15;58.83;;;14.60;55.40;;;;;;4910001;28;91019;-47
2023/03/06 05:52:51;;;;;;;80.90;57.20;;;14.60;55.40;;;;;;4908813;28;90908;-46
2023/03/06 05:55:19;;;;;;;78.95;55.72;;;14.60;55.40;;;;;;4908046;28;91093;-48
2023/03/06 05:57:45;;;;;;;78.15;56.55;;;14.60;55.40;;;;;;4909538;28;93881;-50
2023/03/06 06:00:13;;;;;;;84.30;57.28;;;14.60;55.40;;;;;;4914279;28;90077;-47
2023/03/06 06:02:40;;;;;;;80.82;57.22;;;14.60;55.40;;;;;;4915694;28;90082;-48
2023/03/06 06:05:06;;;;;;;79.55;55.55;;;14.60;55.40;;;;;;4913868;28;89815;-47
2023/03/06 06:07:31;;;;;;;82.55;58.00;;;14.50;55.50;;;;;;4908007;28;91012;-45
2023/03/06 06:09:57;;;;;;;81.22;58.00;;;14.60;55.40;;;;;;4912225;28;89970;-49
2023/03/06 06:12:23;;;;;;;85.18;57.05;;;14.60;55.40;;;;;;4914320;28;90992;-47
2023/03/06 06:14:48;;;;;;;84.28;57.65;;;14.50;55.40;;;;;;4916251;28;91447;-48
2023/03/06 06:17:15;;;;;;;81.18;56.03;;;14.60;55.50;;;;;;4918692;28;93200;-46
2023/03/06 06:19:41;;;;;;;81.68;56.53;;;14.60;55.50;;;;;;4912585;28;92017;-46
2023/03/06 06:22:07;;;;;;;78.03;55.22;;;14.70;55.40;;;;;;4916071;28;90006;-49
2023/03/06 06:24:33;;;;;;;79.90;56.38;;;14.60;55.40;;;;;;4910490;28;92066;-49
2023/03/06 06:26:59;;;;;;;78.28;55.30;;;14.60;55.50;;;;;;4906916;28;91154;-45
2023/03/06 06:29:25;;;;;;;81.38;57.00;;;14.60;55.70;;;;;;4912797;28;93286;-48
2023/03/06 06:31:52;;;;;;;81.35;56.58;;;14.50;55.70;;;;;;4910949;28;90033;-47
2023/03/06 06:34:18;;;;;;;83.43;58.08;;;14.60;55.60;;;;;;4912088;28;90146;-49
2023/03/06 06:36:44;;;;;;;79.07;55.78;;;14.60;55.60;;;;;;4898333;28;92988;-48
2023/03/06 06:39:13;;;;;;;79.65;55.08;;;14.60;55.60;;;;;;4900741;28;91443;-49
2023/03/06 06:41:39;;;;;;;82.00;57.03;;;14.50;55.80;;;;;;4907764;28;90058;-48
2023/03/06 06:44:07;;;;;;;85.20;58.15;;;14.50;55.90;;;;;;4913025;28;90058;-48
2023/03/06 06:46:34;;;;;;;86.00;58.72;;;14.40;55.90;;;;;;4914469;28;90446;-47
2023/03/06 06:49:01;;;;;;;82.45;57.15;;;14.40;56.10;;;;;;4902113;28;90663;-50
2023/03/06 06:51:31;;;;;;;79.93;55.75;;;14.40;56.20;;;;;;4902203;28;90858;-49
2023/03/06 06:53:57;;;;;;;80.60;56.95;;;14.40;56.20;;;;;;4914550;28;90274;-50
2023/03/06 06:56:23;;;;;;;78.28;55.42;;;14.40;56.20;;;;;;4911450;28;91460;-51
2023/03/06 06:58:51;;;;;;;82.47;57.90;;;14.40;56.40;;;;;;4916074;28;90930;-49
2023/03/06 07:01:17;;;;;;;80.38;57.00;;;14.40;56.40;;;;;;4917345;28;91379;-46
2023/03/06 07:03:43;;;;;;;77.88;56.00;;;14.30;56.40;;;;;;4916983;28;90115;-47
2023/03/06 07:06:10;;;;;;;81.28;57.05;;;14.40;56.40;;;;;;4914195;28;90628;-49
2023/03/06 07:08:36;;;;;;;81.65;57.50;;;14.40;56.40;;;;;;4912478;28;90180;-48
2023/03/06 07:11:13;;;;;;;82.90;57.70;;;14.40;56.30;;;;;;4911030;28;91969;-49
2023/03/06 07:13:39;;;;;;;77.00;55.42;;;14.40;56.40;;;;;;4908232;28;91550;-47
2023/03/06 07:16:05;;;;;;;82.25;58.03;;;14.30;56.20;;;;;;4907488;28;90808;-47
2023/03/06 07:18:31;;;;;;;81.50;58.72;;;14.40;56.40;;;;;;4897712;28;90286;-48
2023/03/06 07:20:57;;;;;;;80.35;56.53;;;14.30;56.40;;;;;;4911475;28;90284;-48
2023/03/06 07:23:23;;;;;;;79.10;56.47;;;14.30;56.40;;;;;;4907924;28;93798;-50
2023/03/06 07:25:49;;;;;;;76.85;55.03;;;14.30;56.40;;;;;;4911410;28;91237;-50
2023/03/06 07:28:16;;;;;;;82.72;57.10;;;14.30;56.50;;;;;;4916428;28;91937;-46
2023/03/06 07:30:42;;;;;;;84.68;57.20;;;14.30;56.50;;;;;;4901043;28;92133;-48
2023/03/06 07:33:08;;;;;;;82.32;57.72;;;14.30;56.40;;;;;;4903885;28;91666;-47
2023/03/06 07:35:34;;;;;;;79.15;56.30;;;14.30;56.50;;;;;;4916295;28;91264;-45
2023/03/06 07:38:00;;;;;;;83.10;57.20;;;14.30;56.40;;;;;;4917744;28;90100;-50
2023/03/06 07:40:26;;;;;;;77.93;55.85;;;14.30;56.40;;;;;;4915374;28;91624;-46
2023/03/06 07:42:56;;;;;;;81.97;57.67;;;14.30;56.40;;;;;;4916374;28;91356;-47
2023/03/06 07:45:22;;;;;;;78.00;55.58;;;14.30;56.30;;;;;;4914048;28;91495;-47
2023/03/06 07:47:52;;;;;;;80.60;56.78;;;14.30;56.40;;;;;;4907325;28;90873;-47
2023/03/06 07:50:18;;;;;;;80.00;56.35;;;14.40;56.30;;;;;;4913223;28;92674;-47
2023/03/06 07:52:44;;;;;;;80.40;56.25;;;14.40;56.20;;;;;;4912121;28;93603;-49
2023/03/06 07:55:10;;;;;;;78.90;56.15;;;14.40;56.20;;;;;;4915279;28;90179;-48
2023/03/06 07:57:37;;;;;;;82.28;57.50;;;14.40;56.80;;;;;;4904090;28;91112;-46
2023/03/06 08:00:05;;;;;;;84.15;56.78;;;14.40;56.20;;;;;;4912356;28;90065;-46
2023/03/06 08:02:31;;;;;;;84.40;58.08;;;14.40;56.20;;;;;;4913331;28;90731;-47
2023/03/06 08:04:56;;;;;;;81.32;56.72;;;14.40;56.10;;;;;;4912870;28;90110;-47
2023/03/06 08:07:22;;;;;;;82.15;56.58;;;14.40;56.20;;;;;;4913254;28;89945;-45
2023/03/06 08:09:48;;;;;;;81.93;57.40;;;14.40;56.20;;;;;;4915464;28;89871;-45
2023/03/06 08:12:14;;;;;;;82.80;56.72;;;14.40;56.20;;;;;;4916736;28;91273;-46
2023/03/06 08:14:40;;;;;;;80.15;57.15;;;14.40;56.10;;;;;;4907197;28;91814;-47
2023/03/06 08:17:05;;;;;;;79.05;55.65;;;14.40;56.20;;;;;;4910659;28;90792;-49
2023/03/06 08:19:31;;;;;;;78.05;55.63;;;14.40;56.20;;;;;;4913769;28;90167;-47
2023/03/06 08:21:57;;;;;;;82.15;57.75;;;14.40;56.20;;;;;;4904986;28;90818;-46
2023/03/06 08:24:23;;;;;;;85.00;58.17;;;14.40;56.20;;;;;;4907171;28;91020;-45
2023/03/06 08:26:49;;;;;;;81.50;56.65;;;14.30;56.20;;;;;;4915813;28;90488;-52
2023/03/06 08:29:15;;;;;;;82.65;57.13;;;14.40;56.30;;;;;;4917163;28;89640;-46
2023/03/06 08:31:44;;;;;;;79.97;56.47;;;14.40;56.40;;;;;;4918920;28;90164;-47
2023/03/06 08:34:13;;;;;;;78.25;55.83;;;14.40;56.00;;;;;;4918945;28;91712;-48
2023/03/06 08:36:39;;;;;;;83.78;58.50;;;14.40;56.10;;;;;;4910425;28;94290;-48
2023/03/06 08:39:05;;;;;;;79.95;56.40;;;14.40;55.90;;;;;;4921643;28;90825;-46
2023/03/06 08:41:32;;;;;;;80.70;56.63;;;14.40;56.10;;;;;;4909661;28;90197;-47
2023/03/06 08:43:58;;;;;;;78.68;55.88;;;14.40;56.00;;;;;;4909137;28;91805;-47
2023/03/06 08:46:26;;;;;;;83.10;58.22;;;14.40;55.90;;;;;;4915434;28;92626;-46
2023/03/06 08:48:51;;;;;;;82.93;57.88;;;14.50;55.90;;;;;;4907980;28;90266;-46
2023/03/06 08:51:19;;;;;;;78.50;54.72;;;14.40;55.80;;;;;;4916479;28;95794;-49
2023/03/06 08:53:44;;;;;;;77.70;55.38;;;14.50;55.90;;;;;;4904939;28;91637;-50
2023/03/06 08:56:17;;;;;;;81.90;57.80;;;14.50;55.80;;;;;;4910629;28;91304;-49
2023/03/06 08:58:43;;;;;;;78.85;55.33;;;14.50;55.80;;;;;;4908943;28;91583;-45
2023/03/06 09:01:31;;;;;;;77.97;54.65;;;14.50;55.80;;;;;;4922530;28;90463;-46
2023/03/06 09:04:00;;;;;;;76.88;54.65;;;14.50;55.70;;;;;;4911321;28;94327;-49
2023/03/06 09:06:28;;;;;;;77.55;54.78;;;14.60;55.70;;;;;;4910258;28;91822;-47
2023/03/06 09:08:54;;;;;;;83.43;57.22;;;14.60;55.60;;;;;;4916649;28;90529;-48
2023/03/06 09:11:21;;;;;;;79.10;56.33;;;14.60;55.60;;;;;;4899437;28;97001;-46
2023/03/06 09:13:47;;;;;;;81.72;56.95;;;14.60;55.50;;;;;;4900569;28;95193;-46
2023/03/06 09:16:12;;;;;;;84.47;57.97;;;14.60;55.30;;;;;;4909980;28;92447;-50
2023/03/06 09:18:38;;;;;;;80.28;56.55;;;14.60;55.40;;;;;;4915474;28;90383;-48
2023/03/06 09:21:05;;;;;;;76.55;54.92;;;14.70;55.30;;;;;;4920613;28;89907;-46
2023/03/06 09:23:31;;;;;;;81.43;56.60;;;14.70;55.20;;;;;;4905937;28;92434;-50
2023/03/06 09:25:58;;;;;;;79.78;55.90;;;14.80;55.10;;;;;;4910190;28;90637;-51
2023/03/06 09:28:24;;;;;;;78.88;55.67;;;14.70;55.00;;;;;;4898454;28;90889;-49
2023/03/06 09:30:51;;;;;;;81.57;56.63;;;14.70;55.10;;;;;;4919191;28;90251;-47
2023/03/06 09:33:17;;;;;;;79.82;55.70;;;14.80;55.00;;;;;;4921668;28;90298;-47
2023/03/06 09:35:54;;;;;;;75.95;54.22;;;14.80;54.80;;;;;;4919478;28;90050;-50
2023/03/06 09:38:25;;;;;;;79.50;56.67;;;14.90;55.20;;;;;;4908190;28;90518;-46
2023/03/06 09:40:53;;;;;;;83.05;57.47;;;14.90;54.70;;;;;;4909408;28;91054;-49
2023/03/06 09:43:43;;;;;;;81.68;57.22;;;14.90;54.50;;;;;;4907912;28;92338;-49
2023/03/06 09:46:12;;;;;;;79.95;55.40;;;14.90;54.20;;;;;;4912703;28;94721;-50
2023/03/06 09:48:53;;;;;;;80.75;56.95;;;14.90;54.30;;;;;;4920677;28;91199;-47
2023/03/06 09:51:25;;;;;;;82.20;57.15;;;14.90;54.10;;;;;;4913420;28;90151;-46
2023/03/06 09:54:13;;;;;;;80.05;55.65;;;15.00;54.00;;;;;;4911015;28;91510;-47
2023/03/06 09:56:46;;;;;;;80.95;57.35;;;15.00;53.70;;;;;;4914301;28;92702;-45
2023/03/06 09:59:23;;;;;;;81.22;57.25;;;15.10;53.60;;;;;;4910866;28;90530;-48
2023/03/06 10:02:00;;;;;;;80.03;56.15;;;15.10;53.30;;;;;;4914727;28;92437;-46
2023/03/06 10:04:39;;;;;;;79.43;55.63;;;15.20;53.30;;;;;;4912133;28;90523;-45
2023/03/06 10:07:14;;;;;;;83.13;58.15;;;15.10;53.20;;;;;;4909430;28;97976;-45
2023/03/06 10:09:50;;;;;;;82.13;57.63;;;15.10;53.20;;;;;;4910943;28;89987;-45
2023/03/06 10:12:22;;;;;;;81.68;57.75;;;15.20;53.10;;;;;;4914562;28;89524;-44
2023/03/06 10:15:12;;;;;;;79.97;56.15;;;15.20;52.90;;;;;;4921608;28;91702;-48
2023/03/06 10:17:39;;;;;;;82.50;57.15;;;15.30;52.80;;;;;;4915801;28;93169;-46
2023/03/06 10:20:16;;;;;;;84.47;57.05;;;15.30;52.80;;;;;;4916196;28;91366;-44
2023/03/06 10:23:06;;;;;;;82.70;57.10;;;15.30;52.60;;;;;;4901170;28;90168;-48
2023/03/06 10:25:37;;;;;;;80.97;57.55;;;15.30;52.60;;;;;;4910298;28;91011;-45
2023/03/06 10:28:27;;;;;;;83.97;57.95;;;15.50;52.50;;;;;;4896936;28;91274;-45
2023/03/06 10:31:09;;;;;;;84.15;57.63;;;15.50;52.30;;;;;;4892078;28;95748;-48
2023/03/06 10:33:48;;;;;;;85.97;58.03;;;15.60;52.10;;;;;;4906334;28;92410;-44
2023/03/06 10:36:16;;;;;;;82.50;57.85;;;15.60;52.00;;;;;;4909358;28;91083;-45
2023/03/06 10:38:44;;;;;;;83.53;56.85;;;15.70;51.90;;;;;;4909141;28;90995;-45
2023/03/06 10:41:09;;;;;;;82.20;58.05;;;15.80;51.80;;;;;;4913771;28;90171;-49
2023/03/06 10:43:40;;;;;;;81.20;56.80;;;15.80;51.60;;;;;;4921577;28;91172;-46
2023/03/06 10:46:08;;;;;;;81.63;57.43;;;15.80;51.80;;;;;;4902776;28;92443;-46
2023/03/06 10:48:35;;;;;;;80.10;56.97;;;15.80;51.60;;;;;;4919581;28;93566;-47
2023/03/06 10:51:23;;;;;;;82.47;57.60;;;15.80;51.60;;;;;;4910278;28;89898;-47
2023/03/06 10:54:16;;;;;;;82.32;57.80;;;15.80;51.60;;;;;;4909280;28;90392;-45
2023/03/06 10:56:44;;;;;;;81.57;56.95;;;15.80;51.50;;;;;;4910182;28;91764;-47
2023/03/06 10:59:23;;;;;;;81.15;56.53;;;15.80;51.60;;;;;;4915675;28;91251;-45
2023/03/06 11:01:52;;;;;;;80.97;56.45;;;15.80;51.50;;;;;;4915898;28;97844;-47
2023/03/06 11:04:27;;;;;;;79.65;55.80;;;15.80;51.30;;;;;;4904001;28;91405;-46
2023/03/06 11:07:05;;;;;;;81.25;57.00;;;15.80;51.40;;;;;;4902986;28;95111;-50
2023/03/06 11:09:32;;;;;;;79.55;56.55;;;15.80;51.30;;;;;;4916503;28;91196;-47
2023/03/06 11:12:22;;;;;;;78.40;54.88;;;15.80;51.30;;;;;;4907445;28;91004;-46
2023/03/06 11:15:09;;;;;;;78.97;55.92;;;15.90;51.20;;;;;;4905621;28;93324;-46
2023/03/06 11:17:46;;;;;;;79.22;56.25;;;15.80;51.30;;;;;;4896874;28;91168;-46
2023/03/06 11:20:23;;;;;;;79.72;55.45;;;15.90;51.40;;;;;;4912357;28;91204;-48
2023/03/06 11:23:04;;;;;;;78.05;55.63;;;15.90;51.40;;;;;;4911816;28;90643;-46
2023/03/06 11:25:40;;;;;;;80.93;56.10;;;15.80;51.30;;;;;;4912618;28;92067;-46
2023/03/06 11:28:27;;;;;;;78.13;55.13;;;15.90;51.40;;;;;;4916612;28;91290;-45
2023/03/06 11:31:15;;;;;;;80.13;55.67;;;15.90;51.40;;;;;;4900827;28;91066;-46
2023/03/06 11:33:52;;;;;;;81.50;56.47;;;15.90;51.20;;;;;;4912600;28;90407;-45
2023/03/06 11:36:32;;;;;;;80.20;56.25;;;15.90;51.10;;;;;;4914400;28;89866;-45
2023/03/06 11:38:58;;;;;;;78.32;55.15;;;16.00;51.10;;;;;;4918183;28;94069;-46
2023/03/06 11:41:43;;;;;;;81.07;55.22;;;16.00;51.00;;;;;;4911229;28;92039;-49
2023/03/06 11:44:23;;;;;;;81.38;56.15;;;16.00;51.00;;;;;;4914933;28;89745;-47
2023/03/06 11:46:56;;;;;;;79.28;55.15;;;16.00;51.00;;;;;;4905652;28;90454;-47
2023/03/06 11:49:28;;;;;;;79.22;55.85;;;16.00;50.90;;;;;;4908261;28;91454;-46
2023/03/06 11:51:58;;;;;;;79.35;54.92;;;16.10;51.00;;;;;;4903901;28;91180;-45
2023/03/06 11:54:23;;;;;;;76.90;54.13;;;16.10;50.90;;;;;;4914512;28;89937;-47
2023/03/06 11:57:01;;;;;;;79.07;55.35;;;16.10;50.70;;;;;;4929430;28;89718;-46
2023/03/06 11:59:58;;;;;;;77.93;54.63;;;16.00;50.70;;;;;;4904673;28;91941;-44
2023/03/06 12:02:41;;;;;;;77.63;54.85;;;16.10;50.80;;;;;;4911306;28;90368;-46
2023/03/06 12:05:26;;;;;;;76.78;54.15;;;16.10;50.80;;;;;;4910571;28;91404;-46
2023/03/06 12:07:59;;;;;;;78.78;54.85;;;16.10;50.80;;;;;;4914656;28;93020;-46
2023/03/06 12:10:46;;;;;;;76.78;54.38;;;16.10;50.60;;;;;;4919201;28;90472;-49
2023/03/06 12:13:23;;;;;;;78.90;55.05;;;16.10;50.50;;;;;;4910781;28;91282;-49
2023/03/06 12:16:28;;;;;;;76.93;54.15;;;16.10;50.80;;;;;;4916175;28;89719;-45
2023/03/06 12:19:23;;;;;;;76.05;53.55;;;16.10;50.90;;;;;;4901299;28;92056;-45
2023/03/06 12:22:07;;;;;;;78.25;54.55;;;16.10;50.80;;;;;;4908362;28;92262;-48
2023/03/06 12:24:55;;;;;;;77.18;54.03;;;16.10;50.70;;;;;;4916383;28;91069;-49
2023/03/06 12:27:28;;;;;;;77.72;54.35;;;16.20;50.60;;;;;;4919686;28;90741;-46
2023/03/06 12:30:14;;;;;;;77.97;54.67;;;16.20;50.60;;;;;;4910818;28;90447;-46
2023/03/06 12:33:01;;;;;;;78.20;54.42;;;16.20;50.40;;;;;;4912673;28;92562;-49
2023/03/06 12:35:57;;;;;;;75.88;53.53;;;16.20;50.40;;;;;;4909652;28;90944;-46
2023/03/06 12:38:40;;;;;;;77.80;53.75;;;16.10;50.40;;;;;;4906646;28;90446;-49